ストックホルム・アーランダ空港の過去48時間の天気

ストックホルム・アーランダ空港 (Stockholm / Arlanda)

現在時刻: 8/18 04:42 CEST (8/18 02:42 UTC) 以下の時間は現地時間です。

過去48時間のMETAR気象情報
時間 風向 風速(m/s) 視程 気温(℃) 湿度(%) 気圧(hPa) 天気現象
18 04:20 南南東 5 10km以上 15 100 1006
18 03:50 南南東 5 10km以上 15 100 1006
18 03:20 南南東 6 10km以上 15 94 1006
18 02:50 南南東 5 10km以上 15 94 1006
18 02:20 南南東 5 10km以上 15 94 1006
18 01:50 南南東 6 5000m 15 94 1006 霧雨
18 01:20 南南東 6 5000m 15 94 1007 霧雨
18 00:50 南南東 6 5000m 15 94 1007 霧雨
18 00:20 6 8000m 15 88 1007 霧雨
17 23:50 6 10km以上 15 88 1007
17 23:20 南南東 7 10km以上 16 82 1007
17 22:50 南東 5 10km以上 16 82 1007
17 22:20 南南東 5 10km以上 16 82 1007
17 21:50 南南東 5 10km以上 16 88 1007 弱い雨
17 21:20 南南東 5 10km以上 16 88 1007 弱い霧雨
17 20:50 南南東 5 10km以上 16 88 1007 弱い霧雨
17 20:20 南南東 5 10km以上 16 88 1008 弱い雨
17 19:50 南南東 5 10km以上 17 77 1008 しゅう雨
17 19:20 7 10km以上 18 68 1008 弱い霧雨
17 18:50 5 10km以上 18 60 1008 弱い雨
17 18:20 6 10km以上 19 56 1008
17 17:50 8 10km以上 19 56 1008
17 17:20 8 10km以上 19 56 1008
17 16:50 7 10km以上 19 60 1008
17 16:20 7 10km以上 19 56 1008
17 15:50 7 10km以上 19 56 1008
17 15:20 8 10km以上 19 56 1008
17 14:50 7 10km以上 20 49 1009
17 14:20 8 10km以上 20 49 1009
17 13:50 8 10km以上 19 52 1009
17 13:20 7 10km以上 20 49 1009
17 12:50 7 10km以上 19 52 1009
17 12:20 南南西 6 10km以上 19 56 1009
17 11:50 7 10km以上 18 56 1010
17 11:20 7 10km以上 18 56 1010
17 10:50 南南西 7 10km以上 18 60 1010
17 10:20 南南西 6 10km以上 17 68 1010
17 09:50 南南西 6 10km以上 16 77 1010
17 09:20 5 10km以上 17 72 1010
17 08:50 南南東 3 10km以上 17 72 1010
17 08:20 3 10km以上 16 77 1010
17 07:50 南南東 3 10km以上 15 88 1010
17 07:20 南西 2 10km以上 15 88 1010
17 06:50 南西 3 10km以上 14 94 1010
17 06:20 西南西 2 10km以上 14 94 1009
17 05:50 西 2 10km以上 14 88 1009
17 05:20 西南西 2 10km以上 15 82 1009
17 04:50 西 3 10km以上 15 82 1010
17 04:20 西 4 10km以上 15 82 1009
17 03:50 西南西 3 10km以上 16 94 1009
17 03:20 3 10km以上 15 100 1009
17 02:50 3 9000m 16 94 1009
17 02:20 3 8000m 16 94 1009 もや
17 01:50 3 8000m 15 100 1009 もや
17 01:20 南東 4 8000m 15 100 1009
17 00:50 南南東 3 8000m 15 94 1009
17 00:20 南南東 3 10km以上 15 94 1009
16 23:50 南南東 3 10km以上 15 94 1009
16 23:20 南東 3 10km以上 15 94 1009
16 22:50 南南東 3 10km以上 16 88 1010
16 22:20 南南東 3 10km以上 16 88 1009
16 21:50 南南東 3 10km以上 17 83 1009
16 21:20 3 10km以上 16 82 1009
16 20:50 3 10km以上 17 83 1009
16 20:20 4 10km以上 18 73 1009
16 19:50 4 10km以上 19 68 1009
16 19:20 4 10km以上 19 68 1009
16 18:50 4 10km以上 19 68 1009
16 18:20 5 10km以上 19 68 1009
16 17:50 南南西 5 10km以上 19 64 1009
16 17:20 南南西 7 10km以上 20 60 1009
16 16:50 6 10km以上 21 56 1009
16 16:20 南南東 5 10km以上 21 56 1009
16 15:50 南南東 5 10km以上 20 60 1009
16 15:20 5 10km以上 21 56 1009
16 14:50 南南東 5 10km以上 20 68 1009
16 14:20 南南東 6 10km以上 19 68 1009 周辺でしゅう雨
16 13:50 4 10km以上 19 73 1009
16 13:20 南南東 4 10km以上 19 78 1010
16 12:50 南東 4 10km以上 18 88 1010
16 12:20 南東 4 10km以上 18 83 1010
16 11:50 南東 3 10km以上 16 88 1010 弱いしゅう雨
16 11:20 南南東 4 9000m 15 94 1010
16 10:50 8 10km以上 17 77 1010 弱い雨
16 10:20 南南東 6 10km以上 18 68 1010
16 09:50 南南東 5 10km以上 17 72 1010
16 09:20 南東 4 10km以上 17 72 1010
16 08:50 東南東 4 10km以上 16 77 1010
16 08:20 東南東 3 10km以上 15 77 1010
16 07:50 東南東 3 10km以上 14 88 1010
16 07:20 南東 3 10km以上 14 88 1011
16 06:50 南東 3 10km以上 14 88 1010
16 06:20 南東 3 10km以上 13 94 1010
16 05:50 3 10km以上 13 94 1011
16 05:20 南南東 3 10km以上 11 94 1011
16 04:50 南南東 3 10km以上 12 94 1011
ESSA 180220Z 16009KT 9999 BKN009 15/15 Q1006 NOSIG
ESSA 180150Z 16009KT 9999 BKN009 15/15 Q1006 NOSIG
ESSA 180120Z 16011KT 9999 BKN010 15/14 Q1006 NOSIG
ESSA 180050Z 15010KT 9999 BKN011 15/14 Q1006 NOSIG
ESSA 180020Z 16010KT 9999 SCT007 BKN014 15/14 Q1006 NOSIG
ESSA 172350Z 16012KT 5000 DZ BKN006 15/14 Q1006 NOSIG
ESSA 172320Z 16011KT 5000 DZ SCT006 BKN009 15/14 Q1007 NOSIG
ESSA 172250Z 16012KT 5000 DZ FEW006 BKN013 15/14 Q1007 NOSIG
ESSA 172220Z 17011KT 8000 DZ FEW006 BKN019 OVC033 15/13 Q1007 NOSIG
ESSA 172150Z 18012KT 9999 FEW010 BKN032 15/13 Q1007 NOSIG
ESSA 172120Z 16013G23KT 9999 SCT030 BKN050 16/13 Q1007 NOSIG
ESSA 172050Z 14010KT CAVOK 16/13 Q1007 NOSIG
ESSA 172020Z 15010KT 9999 BKN066 16/13 Q1007 NOSIG
ESSA 171950Z 15010KT 9999 -RA BKN062 16/14 Q1007 NOSIG
ESSA 171920Z 15010KT 9999 -DZ FEW024 BKN065 16/14 Q1007 NOSIG
ESSA 171850Z 15009KT 9999 -DZ SCT022 16/14 Q1007 NOSIG
ESSA 171820Z 16010KT 9999 -RA FEW023 SCT042 16/14 Q1008 NOSIG
ESSA 171750Z 16010KT 9999 SHRA SCT030CB 17/13 Q1008 NOSIG
ESSA 171720Z 17014KT 9999 -DZ FEW030 SCT048 18/12 Q1008 NOSIG
ESSA 171650Z 17010KT 9999 -RA FEW040 18/10 Q1008 NOSIG
ESSA 171620Z 18011KT 9999 FEW040 19/10 Q1008 NOSIG
ESSA 171550Z 18016KT 9999 FEW036 19/10 Q1008 NOSIG
ESSA 171520Z 18016KT 9999 FEW036 19/10 Q1008 NOSIG
ESSA 171450Z 17014KT 9999 FEW036 19/11 Q1008 NOSIG
ESSA 171420Z 18013KT CAVOK 19/10 Q1008 NOSIG
ESSA 171350Z 18014KT CAVOK 19/10 Q1008 NOSIG
ESSA 171320Z 18015KT CAVOK 19/10 Q1008 NOSIG
ESSA 171250Z 19013KT CAVOK 20/09 Q1009 NOSIG
ESSA 171220Z 18015KT CAVOK 20/09 Q1009 NOSIG
ESSA 171150Z 19015KT CAVOK 19/09 Q1009 NOSIG
ESSA 171120Z 18014KT 9999 SCT042 20/09 Q1009 NOSIG
ESSA 171050Z 18014KT 9999 SCT048 19/09 Q1009 NOSIG
ESSA 171020Z 20012KT CAVOK 19/10 Q1009 NOSIG
ESSA 170950Z 18014KT 9999 SCT047 18/09 Q1010 NOSIG
ESSA 170920Z 19013KT 9999 FEW041 18/09 Q1010 NOSIG
ESSA 170850Z 20013KT 9999 FEW027 18/10 Q1010 NOSIG
ESSA 170820Z 20012KT 170V240 9999 FEW027 SCT044 BKN200 17/11 Q1010 NOSIG
ESSA 170750Z 21012KT 170V230 9999 FEW020 SCT031 SCT040 16/12 Q1010 NOSIG
ESSA 170720Z 18009KT 9999 FEW023 SCT042 17/12 Q1010 NOSIG
ESSA 170650Z 16006KT 9999 SCT043 17/12 Q1010 NOSIG
ESSA 170620Z 19006KT 9999 FEW022 SCT041 16/12 Q1010 NOSIG
ESSA 170550Z 15006KT 9999 SCT040 15/13 Q1010 NOSIG
ESSA 170520Z 22004KT 180V250 9999 SCT015 15/13 Q1010 NOSIG
ESSA 170450Z 23005KT 9999 SCT013 14/13 Q1010 NOSIG
ESSA 170420Z 25003KT 9999 FEW040 14/13 Q1009 NOSIG
ESSA 170350Z 26003KT 9999 FEW035 SCT047 14/12 Q1009 NOSIG
ESSA 170320Z 25003KT 9999 FEW030 BKN040 15/12 Q1009 NOSIG
ESSA 170250Z 27005KT 9999 SCT027 BKN040 15/12 Q1010 NOSIG
ESSA 170220Z 27007KT 9999 BKN024 15/12 Q1009 NOSIG
ESSA 170150Z 25006KT 9999 FEW007 BKN021 16/15 Q1009 NOSIG
ESSA 170120Z 18005KT 9999 BKN010 15/15 Q1009 NOSIG
ESSA 170050Z 17005KT 9000 BKN007 16/15 Q1009 NOSIG
ESSA 170020Z 17006KT 8000 BR BKN004 16/15 Q1009 NOSIG
ESSA 162350Z 17006KT 8000 BR OVC004 15/15 Q1009 NOSIG
ESSA 162320Z 14008KT 8000 BKN004 15/15 Q1009 NOSIG
ESSA 162250Z 15006KT 8000 FEW006 15/14 Q1009 TEMPO BKN004
ESSA 162220Z 15006KT CAVOK 15/14 Q1009 NOSIG
ESSA 162150Z 15006KT 120V190 CAVOK 15/14 Q1009 NOSIG
ESSA 162120Z 14006KT CAVOK 15/14 Q1009 NOSIG
ESSA 162050Z 15006KT CAVOK 16/14 Q1010 NOSIG
ESSA 162020Z 15006KT CAVOK 16/14 Q1009 NOSIG
ESSA 161950Z 15006KT CAVOK 17/14 Q1009 NOSIG
ESSA 161920Z 19006KT CAVOK 16/13 Q1009 NOSIG
ESSA 161850Z 18006KT CAVOK 17/14 Q1009 NOSIG
ESSA 161820Z 19007KT CAVOK 18/13 Q1009 NOSIG
ESSA 161750Z 19008KT CAVOK 19/13 Q1009 NOSIG
ESSA 161720Z 19007KT CAVOK 19/13 Q1009 NOSIG
ESSA 161650Z 19008KT CAVOK 19/13 Q1009 NOSIG
ESSA 161620Z 19009KT CAVOK 19/13 Q1009 NOSIG
ESSA 161550Z 20010KT CAVOK 19/12 Q1009 NOSIG
ESSA 161520Z 21013KT CAVOK 20/12 Q1009 NOSIG
ESSA 161450Z 18012KT 9999 SCT036 21/12 Q1009 NOSIG
ESSA 161420Z 16010KT 130V190 9999 SCT039 21/12 Q1009 NOSIG
ESSA 161350Z 16010KT 9999 SCT038 20/12 Q1009 NOSIG
ESSA 161320Z 17010KT 9999 SCT036 21/12 Q1009 NOSIG
ESSA 161250Z 16010G24KT 130V190 9999 SCT034 20/14 Q1009 NOSIG
ESSA 161220Z 16012KT 9999 VCSH FEW032CB SCT049 BKN078 19/13 Q1009 NOSIG
ESSA 161150Z 17008KT 9999 FEW042 BKN051 19/14 Q1009 NOSIG
ESSA 161120Z 16008KT 9999 SCT045 BKN057 19/15 Q1010 NOSIG
ESSA 161050Z 14007KT CAVOK 18/16 Q1010 NOSIG
ESSA 161020Z 14007KT 120V180 CAVOK 18/15 Q1010 RERA NOSIG
ESSA 160950Z 14006KT 110V200 9999 -SHRA FEW032CB SCT074 16/14 Q1010 NOSIG
ESSA 160920Z 15007KT 9000 RA BKN027CB BKN051 15/14 Q1010 TEMPO SHRA BKN035CB
ESSA 160850Z 17015KT 9999 -RA BKN026CB 17/13 Q1010 TEMPO SHRA BKN035CB
ESSA 160820Z 15012KT 9999 BKN028 OVC098 18/12 Q1010 NOSIG
ESSA 160750Z 15009KT 120V180 9999 BKN028 OVC094 17/12 Q1010 NOSIG
ESSA 160720Z 14008KT 110V180 CAVOK 17/12 Q1010 NOSIG
ESSA 160650Z 11007KT CAVOK 16/12 Q1010 NOSIG
ESSA 160620Z 11006KT CAVOK 15/11 Q1010 NOSIG
ESSA 160550Z 12006KT 090V170 CAVOK 14/12 Q1010 NOSIG
ESSA 160520Z 13005KT 100V170 CAVOK 14/12 Q1011 NOSIG
ESSA 160450Z 14005KT CAVOK 14/12 Q1010 NOSIG
ESSA 160420Z 14005KT CAVOK 13/12 Q1010 NOSIG
ESSA 160350Z 17005KT CAVOK 13/12 Q1011 NOSIG
ESSA 160320Z 16005KT CAVOK 11/10 Q1011 NOSIG
ESSA 160250Z 15005KT CAVOK 12/11 Q1011 NOSIG